createdAt,value
2022-09-28T00:01:19.914Z,16.75
2022-09-28T00:03:49.253Z,13.57
2022-09-28T00:06:19.537Z,13.48
2022-09-28T00:08:47.253Z,15.10
2022-09-28T00:11:15.563Z,6.85
2022-09-28T00:13:44.560Z,15.18
2022-09-28T00:16:17.261Z,16.52
2022-09-28T00:18:45.672Z,15.10
2022-09-28T00:21:19.023Z,15.05
2022-09-28T00:24:05.337Z,15.82
2022-09-28T00:26:33.994Z,13.82
2022-09-28T00:29:02.624Z,13.57
2022-09-28T00:31:32.783Z,11.73
2022-09-28T00:34:02.495Z,13.70
2022-09-28T00:36:31.502Z,15.30
2022-09-28T00:38:59.609Z,14.23
2022-09-28T00:41:28.315Z,18.92
2022-09-28T00:44:26.929Z,11.73
2022-09-28T00:47:14.790Z,11.68
2022-09-28T00:50:01.172Z,17.27
2022-09-28T00:52:38.387Z,12.68
2022-09-28T00:55:11.445Z,11.98
2022-09-28T00:57:42.369Z,11.85
2022-09-28T01:00:11.593Z,10.10
2022-09-28T01:02:40.398Z,8.30
2022-09-28T01:05:10.408Z,12.98
2022-09-28T01:07:38.917Z,11.43
2022-09-28T01:10:07.342Z,10.90
2022-09-28T01:12:34.883Z,12.52
2022-09-28T01:15:03.702Z,9.32
2022-09-28T01:17:40.063Z,16.90
2022-09-28T01:20:27.283Z,18.50
2022-09-28T01:23:09.381Z,10.45
2022-09-28T01:26:10.097Z,16.15
2022-09-28T01:28:38.171Z,11.27
2022-09-28T01:31:09.125Z,9.70
2022-09-28T01:33:46.322Z,13.60
2022-09-28T01:36:43.833Z,16.58
2022-09-28T01:39:15.565Z,17.42
2022-09-28T01:41:46.707Z,11.45
2022-09-28T01:46:48.368Z,15.68
2022-09-28T01:49:27.468Z,15.80
2022-09-28T01:52:02.682Z,14.77
2022-09-28T01:54:44.963Z,11.13
2022-09-28T01:57:29.944Z,12.18
2022-09-28T02:00:08.454Z,14.13
2022-09-28T02:02:50.161Z,16.55
2022-09-28T02:05:42.078Z,10.85
2022-09-28T02:08:31.134Z,11.73
2022-09-28T02:11:07.943Z,14.77
2022-09-28T02:14:01.057Z,16.73
2022-09-28T02:16:36.497Z,14.40
2022-09-28T02:19:05.460Z,14.40
2022-09-28T02:22:07.299Z,12.43
2022-09-28T02:24:50.780Z,16.60
2022-09-28T02:27:48.582Z,17.95
2022-09-28T02:30:17.930Z,11.85
2022-09-28T02:32:49.810Z,13.02
2022-09-28T02:35:19.753Z,16.50
2022-09-28T02:37:47.345Z,9.70
2022-09-28T02:40:16.527Z,13.57
2022-09-28T02:42:55.008Z,9.88
2022-09-28T02:45:49.876Z,12.20
2022-09-28T02:48:43.868Z,11.10
2022-09-28T02:51:22.254Z,11.25
2022-09-28T02:54:11.979Z,14.00
2022-09-28T02:56:50.913Z,18.02
2022-09-28T02:59:43.954Z,16.33
2022-09-28T03:02:32.184Z,7.75
2022-09-28T03:05:23.331Z,12.98
2022-09-28T03:07:59.299Z,10.48
2022-09-28T03:10:41.770Z,11.80
2022-09-28T03:13:09.811Z,9.57
2022-09-28T03:15:40.410Z,7.78
2022-09-28T03:18:07.857Z,11.77
2022-09-28T03:20:35.400Z,8.80
2022-09-28T03:23:23.939Z,19.48
2022-09-28T03:25:51.771Z,18.05
2022-09-28T03:28:19.470Z,9.77
2022-09-28T03:30:48.447Z,19.63
2022-09-28T03:33:16.149Z,14.43
2022-09-28T03:35:48.038Z,11.43
2022-09-28T03:38:20.098Z,13.38
2022-09-28T03:40:59.364Z,15.38
2022-09-28T03:46:01.866Z,18.05
2022-09-28T03:48:33.823Z,13.50
2022-09-28T03:51:09.151Z,13.20
2022-09-28T03:53:37.421Z,7.55
2022-09-28T03:56:06.713Z,9.52
2022-09-28T03:58:34.596Z,9.43
2022-09-28T04:01:04.433Z,14.93
2022-09-28T04:03:31.934Z,10.52
2022-09-28T04:06:00.058Z,10.88
2022-09-28T04:08:28.093Z,13.68
2022-09-28T04:11:00.155Z,7.75
2022-09-28T04:13:29.161Z,18.13
2022-09-28T04:15:59.177Z,15.65
2022-09-28T04:18:28.726Z,13.52
2022-09-28T04:21:17.117Z,17.45
2022-09-28T04:23:48.758Z,9.30
2022-09-28T04:26:28.352Z,16.00
2022-09-28T04:29:16.022Z,9.82
2022-09-28T04:31:57.442Z,11.95
2022-09-28T04:34:41.881Z,10.50
2022-09-28T04:37:11.842Z,16.95
2022-09-28T04:39:43.938Z,16.42
2022-09-28T04:42:13.990Z,19.35
2022-09-28T04:44:41.349Z,13.63
2022-09-28T04:47:10.175Z,12.85
2022-09-28T04:49:52.990Z,16.20
2022-09-28T04:52:27.228Z,15.63
2022-09-28T04:54:54.770Z,16.45
2022-09-28T04:57:22.287Z,11.48
2022-09-28T04:59:49.786Z,11.43
2022-09-28T05:02:18.813Z,11.77
2022-09-28T05:05:11.634Z,12.70
2022-09-28T05:08:04.746Z,13.32
2022-09-28T05:10:32.250Z,10.57
2022-09-28T05:13:02.354Z,15.52
2022-09-28T05:15:30.972Z,16.10
2022-09-28T05:17:58.442Z,15.80
2022-09-28T05:20:41.762Z,13.98
2022-09-28T05:23:11.414Z,12.07
2022-09-28T05:25:40.021Z,17.02
2022-09-28T05:28:25.108Z,9.45
2022-09-28T05:31:32.341Z,16.20
2022-09-28T05:34:38.465Z,13.95
2022-09-28T05:37:06.096Z,15.15
2022-09-28T05:39:33.618Z,18.85
2022-09-28T05:42:01.736Z,15.50
2022-09-28T05:44:30.388Z,14.25
2022-09-28T05:46:57.846Z,16.50
2022-09-28T05:49:25.222Z,15.85
2022-09-28T05:51:52.648Z,20.10
2022-09-28T05:54:21.192Z,9.90
2022-09-28T05:56:48.921Z,11.85
2022-09-28T05:59:17.173Z,17.13
2022-09-28T06:01:44.772Z,17.10
2022-09-28T06:04:12.913Z,19.60
2022-09-28T06:06:43.128Z,15.15
2022-09-28T06:09:10.905Z,11.90
2022-09-28T06:12:01.849Z,14.25
2022-09-28T06:17:17.186Z,18.10
2022-09-28T06:19:49.759Z,23.15
2022-09-28T06:22:26.068Z,15.05
2022-09-28T06:25:04.406Z,14.60
2022-09-28T06:27:31.877Z,15.90
2022-09-28T06:30:00.818Z,15.60
2022-09-28T06:32:29.786Z,11.20
2022-09-28T06:34:57.829Z,16.55
2022-09-28T06:37:27.704Z,18.85
2022-09-28T06:39:56.390Z,13.43
2022-09-28T06:42:24.734Z,17.00
2022-09-28T06:45:11.353Z,14.38
2022-09-28T06:48:05.321Z,17.83
2022-09-28T06:50:41.013Z,13.43
2022-09-28T06:53:28.431Z,12.85
2022-09-28T06:56:16.119Z,23.40
2022-09-28T06:58:43.624Z,14.32
2022-09-28T07:01:12.052Z,14.68
2022-09-28T07:03:54.869Z,15.98
2022-09-28T07:06:50.527Z,15.85
2022-09-28T07:09:41.524Z,13.05
2022-09-28T07:12:21.829Z,15.80
2022-09-28T07:14:59.653Z,12.32
2022-09-28T07:17:29.301Z,18.98
2022-09-28T07:20:08.743Z,16.08
2022-09-28T07:22:43.391Z,15.50
2022-09-28T07:25:16.071Z,16.35
2022-09-28T07:27:59.749Z,25.45
2022-09-28T07:33:12.547Z,17.13
2022-09-28T07:35:55.536Z,16.05
2022-09-28T07:38:30.422Z,17.63
2022-09-28T07:41:14.043Z,16.55
2022-09-28T07:43:46.191Z,12.30
2022-09-28T07:46:13.816Z,17.73
2022-09-28T07:48:52.702Z,12.77
2022-09-28T07:51:25.491Z,14.98
2022-09-28T07:54:11.583Z,10.88
2022-09-28T07:56:53.521Z,14.13
2022-09-28T07:59:38.309Z,18.92
2022-09-28T08:02:41.640Z,16.13
2022-09-28T08:05:09.988Z,14.63
2022-09-28T08:07:38.440Z,15.68
2022-09-28T08:10:09.843Z,11.25
2022-09-28T08:13:05.468Z,12.98
2022-09-28T08:15:53.946Z,16.58
2022-09-28T08:18:41.875Z,11.38
2022-09-28T08:21:29.045Z,10.10
2022-09-28T08:23:56.737Z,12.57
2022-09-28T08:26:24.618Z,14.68
2022-09-28T08:28:52.733Z,11.57
2022-09-28T08:31:49.379Z,11.68
2022-09-28T08:34:42.455Z,18.13
2022-09-28T08:37:20.689Z,15.75
2022-09-28T08:40:21.872Z,12.25
2022-09-28T08:43:44.830Z,13.13
2022-09-28T08:46:29.188Z,15.68
2022-09-28T08:49:31.127Z,17.55
2022-09-28T08:52:28.298Z,14.80
2022-09-28T08:55:28.714Z,13.43
2022-09-28T08:58:13.985Z,10.32
2022-09-28T09:00:47.537Z,17.45
2022-09-28T09:03:32.467Z,15.15
2022-09-28T09:06:18.761Z,13.13
2022-09-28T09:09:13.905Z,14.57
2022-09-28T09:11:58.422Z,13.43
2022-09-28T09:14:59.122Z,15.20
2022-09-28T09:18:01.815Z,11.55
2022-09-28T09:20:59.013Z,16.13
2022-09-28T09:23:37.337Z,17.05
2022-09-28T09:29:28.104Z,12.05
2022-09-28T09:32:22.570Z,10.45
2022-09-28T09:35:37.581Z,14.85
2022-09-28T09:38:52.213Z,16.60
2022-09-28T09:41:58.594Z,13.38
2022-09-28T09:45:22.527Z,12.82
2022-09-28T09:48:15.892Z,16.52
2022-09-28T09:50:54.081Z,13.60
2022-09-28T09:53:36.107Z,12.70
2022-09-28T09:56:13.019Z,13.38
2022-09-28T09:59:06.683Z,11.93
2022-09-28T10:01:40.594Z,10.63
2022-09-28T10:04:41.640Z,14.23
2022-09-28T10:07:29.810Z,13.05
2022-09-28T10:10:02.310Z,8.48
2022-09-28T10:12:41.569Z,8.32
2022-09-28T10:15:15.448Z,13.93
2022-09-28T10:17:55.661Z,10.20
2022-09-28T10:20:45.039Z,8.40
2022-09-28T10:23:36.748Z,9.77
2022-09-28T10:26:10.186Z,10.45
2022-09-28T10:28:48.318Z,7.50
2022-09-28T10:31:38.167Z,7.18
2022-09-28T10:34:14.687Z,3.95
2022-09-28T10:36:51.527Z,5.80
2022-09-28T10:39:32.930Z,5.35
2022-09-28T10:42:08.748Z,7.10
2022-09-28T10:44:50.583Z,4.32
2022-09-28T10:47:35.553Z,5.40
2022-09-28T10:50:21.121Z,6.53
2022-09-28T10:52:49.848Z,4.70
2022-09-28T10:55:57.829Z,3.38
2022-09-28T10:58:37.062Z,6.60
2022-09-28T11:01:31.226Z,4.68
2022-09-28T11:04:05.328Z,5.95
2022-09-28T11:06:37.434Z,3.78
2022-09-28T11:09:26.150Z,3.30
2022-09-28T11:12:01.441Z,5.65
2022-09-28T11:14:42.487Z,2.15
2022-09-28T11:17:28.746Z,2.38
2022-09-28T11:20:27.418Z,3.70
2022-09-28T11:23:00.576Z,7.75
2022-09-28T11:25:34.162Z,2.72
2022-09-28T11:28:04.546Z,2.55
2022-09-28T11:33:46.839Z,4.43
2022-09-28T11:36:54.994Z,3.92
2022-09-28T11:39:39.517Z,3.25
2022-09-28T11:42:18.639Z,5.55
2022-09-28T11:44:49.024Z,5.15
2022-09-28T11:47:35.497Z,2.42
2022-09-28T11:50:24.405Z,3.70
2022-09-28T11:53:11.654Z,2.10
2022-09-28T11:55:45.715Z,4.63
2022-09-28T11:58:35.385Z,4.63
2022-09-28T12:01:42.655Z,2.10
2022-09-28T12:04:56.947Z,3.25
2022-09-28T12:07:32.603Z,2.67
2022-09-28T12:10:27.080Z,2.67
2022-09-28T12:13:17.367Z,4.80
2022-09-28T12:16:38.779Z,5.57
2022-09-28T12:19:08.172Z,2.70
2022-09-28T12:21:38.777Z,3.90
2022-09-28T12:24:27.314Z,5.22
2022-09-28T12:27:09.608Z,3.90
2022-09-28T12:29:57.117Z,2.75
2022-09-28T12:32:38.996Z,3.03
2022-09-28T12:35:16.210Z,3.72
2022-09-28T12:38:16.111Z,2.72
2022-09-28T12:40:55.636Z,2.67
2022-09-28T12:43:49.887Z,3.53
2022-09-28T12:46:36.656Z,2.85
2022-09-28T12:55:36.098Z,2.47
2022-09-28T12:58:21.728Z,2.70
2022-09-28T13:01:24.754Z,4.18
2022-09-28T13:03:55.200Z,3.03
2022-09-28T13:06:45.141Z,1.75
2022-09-28T13:09:20.324Z,3.05
2022-09-28T13:12:13.867Z,4.13
2022-09-28T13:15:03.216Z,3.47
2022-09-28T13:18:12.020Z,3.75
2022-09-28T13:20:48.312Z,5.45
2022-09-28T13:23:21.384Z,4.05
2022-09-28T13:26:13.929Z,3.70
2022-09-28T13:28:43.487Z,4.07
2022-09-28T13:31:12.973Z,4.70
2022-09-28T13:33:43.941Z,5.07
2022-09-28T13:38:59.816Z,4.30
2022-09-28T13:41:33.438Z,4.70
2022-09-28T13:44:10.960Z,2.63
2022-09-28T13:47:10.096Z,5.32
2022-09-28T13:50:15.242Z,2.47
2022-09-28T13:52:47.779Z,2.10
2022-09-28T13:55:32.905Z,5.35
2022-09-28T13:58:05.445Z,5.30
2022-09-28T14:00:45.589Z,2.72
2022-09-28T14:03:34.164Z,6.18
2022-09-28T14:06:27.927Z,5.13
2022-09-28T14:09:13.572Z,8.85
2022-09-28T14:11:44.327Z,3.75
2022-09-28T14:14:13.715Z,6.60
2022-09-28T14:16:42.293Z,1.33
2022-09-28T14:19:21.285Z,3.92
2022-09-28T14:22:13.180Z,4.45
2022-09-28T14:25:00.653Z,10.50
2022-09-28T14:27:54.035Z,4.05
2022-09-28T14:30:33.073Z,5.35
2022-09-28T14:33:02.546Z,5.20
2022-09-28T14:35:40.135Z,4.53
2022-09-28T14:38:38.441Z,3.60
2022-09-28T14:41:34.632Z,2.20
2022-09-28T14:44:16.396Z,2.95
2022-09-28T14:46:46.159Z,2.25
2022-09-28T14:49:19.829Z,1.63
2022-09-28T14:51:53.025Z,2.15
2022-09-28T14:54:26.541Z,3.55
2022-09-28T14:56:54.263Z,3.83
2022-09-28T14:59:38.599Z,3.97
2022-09-28T15:02:13.373Z,4.40
2022-09-28T15:05:06.665Z,3.65
2022-09-28T15:07:50.598Z,1.15
2022-09-28T15:10:31.299Z,1.92
2022-09-28T15:13:01.853Z,2.22
2022-09-28T15:15:36.702Z,1.50
2022-09-28T15:18:34.915Z,2.00
2022-09-28T15:21:02.634Z,2.78
2022-09-28T15:23:44.188Z,4.10
2022-09-28T15:26:29.666Z,3.15
2022-09-28T15:28:57.501Z,4.28
2022-09-28T15:31:28.359Z,4.03
2022-09-28T15:34:14.852Z,3.10
2022-09-28T15:36:46.468Z,2.67
2022-09-28T15:39:46.183Z,3.40
2022-09-28T15:42:14.557Z,2.08
2022-09-28T15:44:43.184Z,2.08
2022-09-28T15:47:24.852Z,4.72
2022-09-28T15:49:58.646Z,2.28
2022-09-28T15:52:47.097Z,1.85
2022-09-28T15:55:26.292Z,3.08
2022-09-28T15:58:07.622Z,1.92
2022-09-28T16:00:35.814Z,3.47
2022-09-28T16:03:08.322Z,2.88
2022-09-28T16:05:57.647Z,3.67
2022-09-28T16:08:32.908Z,3.53
2022-09-28T16:11:27.752Z,4.47
2022-09-28T16:14:19.520Z,2.78
2022-09-28T16:16:50.295Z,3.22
2022-09-28T16:19:32.010Z,2.70
2022-09-28T16:22:01.986Z,3.05
2022-09-28T16:24:34.008Z,2.40
2022-09-28T16:27:22.272Z,3.40
2022-09-28T16:30:24.928Z,3.88
2022-09-28T16:32:56.410Z,3.17
2022-09-28T16:35:30.344Z,2.10
2022-09-28T16:38:08.273Z,4.75
2022-09-28T16:40:40.235Z,2.72
2022-09-28T16:43:09.255Z,2.95
2022-09-28T16:45:38.057Z,4.43
2022-09-28T16:48:05.747Z,4.05
2022-09-28T16:50:33.358Z,3.63
2022-09-28T16:53:29.986Z,2.55
2022-09-28T16:55:58.668Z,3.45
2022-09-28T16:58:26.477Z,4.63
2022-09-28T17:00:54.811Z,4.55
2022-09-28T17:03:23.429Z,4.82
2022-09-28T17:05:52.077Z,6.07
2022-09-28T17:08:22.218Z,4.05
2022-09-28T17:13:45.948Z,4.13
2022-09-28T17:16:21.032Z,7.85
2022-09-28T17:18:52.673Z,5.68
2022-09-28T17:21:20.700Z,3.60
2022-09-28T17:23:50.154Z,14.25
2022-09-28T17:26:30.220Z,16.17
2022-09-28T17:28:59.411Z,9.48
2022-09-28T17:31:27.094Z,2.80
2022-09-28T17:33:54.628Z,3.67
2022-09-28T17:36:22.584Z,2.05
2022-09-28T17:38:51.746Z,2.95
2022-09-28T17:41:21.069Z,6.13
2022-09-28T17:43:49.442Z,6.50
2022-09-28T17:46:38.712Z,3.72
2022-09-28T17:49:07.660Z,4.35
2022-09-28T17:51:37.724Z,4.93
2022-09-28T17:54:08.034Z,6.18
2022-09-28T17:56:36.467Z,5.80
2022-09-28T17:59:06.773Z,4.97
2022-09-28T18:01:38.211Z,3.83
2022-09-28T18:04:08.139Z,2.80
2022-09-28T18:06:37.514Z,5.57
2022-09-28T18:09:05.380Z,11.48
2022-09-28T18:11:33.588Z,5.97
2022-09-28T18:14:01.369Z,5.03
2022-09-28T18:16:29.313Z,7.88
2022-09-28T18:18:58.190Z,10.65
2022-09-28T18:21:25.663Z,8.95
2022-09-28T18:23:53.306Z,5.30
2022-09-28T18:26:20.868Z,8.40
2022-09-28T18:28:48.301Z,9.10
2022-09-28T18:31:18.993Z,7.43
2022-09-28T18:33:48.332Z,8.43
2022-09-28T18:36:16.019Z,7.10
2022-09-28T18:38:43.453Z,9.32
2022-09-28T18:41:15.678Z,10.60
2022-09-28T18:43:49.106Z,9.50
2022-09-28T18:46:20.698Z,8.60
2022-09-28T18:48:48.300Z,10.23
2022-09-28T18:51:15.745Z,11.35
2022-09-28T18:53:43.114Z,8.63
2022-09-28T18:56:14.678Z,12.73
2022-09-28T18:58:43.696Z,11.90
2022-09-28T19:01:33.824Z,9.50
2022-09-28T19:04:03.782Z,10.85
2022-09-28T19:06:32.151Z,12.05
2022-09-28T19:08:59.889Z,10.52
2022-09-28T19:11:28.580Z,8.68
2022-09-28T19:13:56.534Z,9.65
2022-09-28T19:16:27.397Z,10.20
2022-09-28T19:18:58.952Z,7.75
2022-09-28T19:21:27.314Z,10.20
2022-09-28T19:23:55.546Z,8.95
2022-09-28T19:26:25.390Z,9.48
2022-09-28T19:28:53.507Z,7.55
2022-09-28T19:31:22.189Z,9.10
2022-09-28T19:33:50.494Z,9.32
2022-09-28T19:36:24.052Z,11.43
2022-09-28T19:38:55.477Z,8.90
2022-09-28T19:41:46.453Z,8.77
2022-09-28T19:44:25.861Z,8.00
2022-09-28T19:46:58.802Z,6.28
2022-09-28T19:49:27.865Z,7.40
2022-09-28T19:54:52.108Z,13.35
2022-09-28T19:57:19.614Z,23.60
2022-09-28T19:59:50.778Z,20.17
2022-09-28T20:02:20.424Z,17.02
2022-09-28T20:04:48.514Z,10.95
2022-09-28T20:07:16.011Z,10.65
2022-09-28T20:09:43.573Z,12.93
2022-09-28T20:12:11.189Z,10.07
2022-09-28T20:14:40.452Z,10.45
2022-09-28T20:17:09.107Z,8.82
2022-09-28T20:19:36.536Z,7.90
2022-09-28T20:22:04.390Z,7.60
2022-09-28T20:24:32.110Z,9.80
2022-09-28T20:27:01.184Z,5.30
2022-09-28T20:29:31.530Z,9.00
2022-09-28T20:31:59.317Z,9.25
2022-09-28T20:34:26.812Z,10.50
2022-09-28T20:36:54.245Z,7.78
2022-09-28T20:39:21.672Z,6.30
2022-09-28T20:41:49.386Z,7.82
2022-09-28T20:44:16.965Z,7.88
2022-09-28T20:46:44.559Z,11.63
2022-09-28T20:49:12.162Z,7.40
2022-09-28T20:51:39.589Z,8.82
2022-09-28T20:54:07.244Z,7.78
2022-09-28T20:56:38.822Z,8.70
2022-09-28T20:59:12.692Z,7.18
2022-09-28T21:01:40.714Z,12.27
2022-09-28T21:04:09.584Z,10.10
2022-09-28T21:06:39.551Z,9.45
2022-09-28T21:09:08.772Z,6.68
2022-09-28T21:11:36.467Z,8.55
2022-09-28T21:14:06.794Z,11.60
2022-09-28T21:16:35.446Z,9.23
2022-09-28T21:19:03.524Z,7.40
2022-09-28T21:21:31.438Z,8.45
2022-09-28T21:23:59.107Z,9.25
2022-09-28T21:26:28.859Z,9.68
2022-09-28T21:29:02.114Z,12.10
2022-09-28T21:31:32.879Z,9.27
2022-09-28T21:36:28.389Z,7.60
2022-09-28T21:38:56.200Z,9.02
2022-09-28T21:41:24.699Z,14.25
2022-09-28T21:43:52.154Z,10.48
2022-09-28T21:46:19.921Z,8.00
2022-09-28T21:48:52.419Z,11.88
2022-09-28T21:51:20.450Z,11.00
2022-09-28T21:53:49.177Z,12.18
2022-09-28T21:56:17.479Z,11.65
2022-09-28T21:58:45.293Z,10.90
2022-09-28T22:01:19.556Z,12.82
2022-09-28T22:03:50.581Z,8.07
2022-09-28T22:06:21.246Z,8.95
2022-09-28T22:08:49.899Z,9.02
2022-09-28T22:11:20.138Z,10.27
2022-09-28T22:13:53.464Z,10.23
2022-09-28T22:16:24.429Z,8.93
2022-09-28T22:21:20.678Z,7.45
2022-09-28T22:23:48.564Z,8.68
2022-09-28T22:26:21.544Z,8.30
2022-09-28T22:28:50.679Z,15.30
2022-09-28T22:31:39.130Z,10.57
2022-09-28T22:34:07.272Z,10.68
2022-09-28T22:36:35.451Z,9.50
2022-09-28T22:39:04.560Z,9.70
2022-09-28T22:41:32.559Z,9.95
2022-09-28T22:44:00.507Z,9.90
2022-09-28T22:46:31.121Z,9.77
2022-09-28T22:48:59.307Z,8.32
2022-09-28T22:51:28.185Z,6.82
2022-09-28T22:53:56.612Z,12.32
2022-09-28T22:56:25.153Z,8.02
2022-09-28T22:58:53.163Z,11.35
2022-09-28T23:01:23.536Z,9.50
2022-09-28T23:03:52.565Z,6.95
2022-09-28T23:06:22.490Z,8.35
2022-09-28T23:08:51.374Z,10.60
2022-09-28T23:11:19.754Z,8.68
2022-09-28T23:13:51.911Z,8.23
2022-09-28T23:16:20.286Z,6.95
2022-09-28T23:18:49.244Z,8.10
2022-09-28T23:21:19.839Z,7.60
2022-09-28T23:23:55.623Z,6.20
2022-09-28T23:26:26.591Z,6.70
2022-09-28T23:28:54.614Z,9.38
2022-09-28T23:31:28.405Z,6.15
2022-09-28T23:34:06.150Z,9.27
2022-09-28T23:36:34.534Z,6.70
2022-09-28T23:39:02.410Z,9.05
2022-09-28T23:41:30.510Z,6.95
2022-09-28T23:43:58.045Z,9.20
2022-09-28T23:46:25.538Z,10.27
2022-09-28T23:48:53.045Z,5.90
2022-09-28T23:51:20.668Z,6.32
2022-09-28T23:53:48.205Z,8.48
2022-09-28T23:56:15.738Z,8.82
2022-09-28T23:58:43.221Z,8.05
